Terminal Aerodrome Forecast
Issued by NWS

Home | Current Version | Previous Version | Text Only | Print | Product List | Glossary On
Versions: 1 2 3 4 5 6 7 8 9 10 11 12 13 14 15 16
000
FTUS41 KBTV 162335
TAFSLK
TAF
KSLK 162335Z 1700/1724 00000KT 5SM -SN BR OVC020
     FM170400 00000KT P6SM VCSH OVC035
     FM171000 00000KT P6SM OVC040
     FM171300 00000KT P6SM VCSH OVC020
     FM172100 23007KT P6SM BKN035=

USA.gov is the U.S. government's official web portal to all federal, state and local government web resources and services.